createdAt,value
2023-01-17T00:02:22.200Z,10.80
2023-01-17T00:05:29.023Z,10.80
2023-01-17T00:08:35.255Z,10.80
2023-01-17T00:11:22.790Z,10.90
2023-01-17T00:14:10.263Z,10.80
2023-01-17T00:16:57.853Z,10.80
2023-01-17T00:20:03.909Z,10.90
2023-01-17T00:23:10.128Z,11.10
2023-01-17T00:26:04.186Z,10.90
2023-01-17T00:28:51.635Z,11.00
2023-01-17T00:31:39.048Z,10.50
2023-01-17T00:34:26.560Z,10.20
2023-01-17T00:37:14.029Z,10.80
2023-01-17T00:40:01.434Z,10.80
2023-01-17T00:42:48.850Z,11.00
2023-01-17T00:45:55.356Z,11.00
2023-01-17T00:49:02.239Z,10.70
2023-01-17T00:52:08.576Z,10.50
2023-01-17T00:55:15.171Z,11.00
2023-01-17T00:58:28.480Z,11.00
2023-01-17T01:01:35.477Z,10.80
2023-01-17T01:04:41.708Z,10.80
2023-01-17T01:07:48.078Z,10.80
2023-01-17T01:10:54.809Z,11.10
2023-01-17T01:14:01.110Z,11.00
2023-01-17T01:17:07.303Z,11.00
2023-01-17T01:20:13.552Z,10.90
2023-01-17T01:23:24.825Z,10.60
2023-01-17T01:26:31.497Z,10.90
2023-01-17T01:29:37.871Z,10.60
2023-01-17T01:32:44.481Z,10.60
2023-01-17T01:35:31.973Z,10.40
2023-01-17T01:38:23.540Z,10.60
2023-01-17T01:41:11.939Z,10.80
2023-01-17T01:43:59.812Z,10.70
2023-01-17T01:46:47.709Z,10.70
2023-01-17T01:49:35.335Z,10.60
2023-01-17T01:52:26.773Z,10.60
2023-01-17T01:55:42.274Z,10.30
2023-01-17T01:58:36.942Z,10.50
2023-01-17T02:01:24.948Z,10.40
2023-01-17T02:04:13.939Z,10.30
2023-01-17T02:07:10.735Z,10.20
2023-01-17T02:09:59.451Z,10.20
2023-01-17T02:12:48.259Z,10.20
2023-01-17T02:16:08.933Z,10.10
2023-01-17T02:19:17.111Z,10.00
2023-01-17T02:22:29.672Z,9.90
2023-01-17T02:25:26.476Z,9.80
2023-01-17T02:29:14.159Z,9.70
2023-01-17T02:32:06.758Z,9.80
2023-01-17T02:35:07.219Z,9.60
2023-01-17T02:38:31.307Z,9.70
2023-01-17T02:41:48.973Z,9.60
2023-01-17T02:44:44.719Z,9.50
2023-01-17T02:47:32.942Z,9.50
2023-01-17T02:50:31.684Z,9.40
2023-01-17T02:53:50.948Z,9.40
2023-01-17T02:56:50.087Z,9.30
2023-01-17T03:00:20.364Z,9.20
2023-01-17T03:03:50.715Z,9.10
2023-01-17T03:06:58.232Z,9.10
2023-01-17T03:09:53.720Z,9.00
2023-01-17T03:12:42.010Z,8.90
2023-01-17T03:15:29.664Z,9.00
2023-01-17T03:18:17.689Z,9.00
2023-01-17T03:21:05.396Z,8.90
2023-01-17T03:23:53.045Z,8.90
2023-01-17T03:26:40.555Z,8.90
2023-01-17T03:29:28.076Z,8.90
2023-01-17T03:32:15.793Z,8.90
2023-01-17T03:35:03.632Z,8.90
2023-01-17T03:37:51.212Z,8.90
2023-01-17T03:40:38.914Z,8.90
2023-01-17T03:43:26.479Z,8.90
2023-01-17T03:46:28.703Z,8.90
2023-01-17T03:49:16.806Z,8.90
2023-01-17T03:52:05.438Z,8.90
2023-01-17T03:54:52.945Z,9.00
2023-01-17T03:57:40.561Z,8.90
2023-01-17T04:00:28.152Z,8.80
2023-01-17T04:03:15.755Z,8.70
2023-01-17T04:06:03.667Z,8.60
2023-01-17T04:08:51.280Z,8.60
2023-01-17T04:11:38.774Z,8.60
2023-01-17T04:14:26.493Z,8.50
2023-01-17T04:17:18.629Z,8.50
2023-01-17T04:20:07.129Z,8.50
2023-01-17T04:22:54.771Z,8.60
2023-01-17T04:25:42.498Z,8.60
2023-01-17T04:28:30.397Z,8.60
2023-01-17T04:31:17.940Z,8.60
2023-01-17T04:34:05.580Z,8.60
2023-01-17T04:36:53.207Z,8.50
2023-01-17T04:39:40.796Z,8.60
2023-01-17T04:42:28.468Z,8.60
2023-01-17T04:45:16.976Z,8.60
2023-01-17T04:48:06.836Z,8.60
2023-01-17T04:51:03.701Z,8.70
2023-01-17T04:53:51.439Z,8.70
2023-01-17T04:56:39.083Z,8.60
2023-01-17T04:59:27.768Z,8.60
2023-01-17T05:02:15.492Z,8.70
2023-01-17T05:05:03.103Z,8.70
2023-01-17T05:07:58.433Z,8.80
2023-01-17T05:10:47.258Z,8.70
2023-01-17T05:13:35.275Z,8.70
2023-01-17T05:16:22.930Z,8.50
2023-01-17T05:19:10.498Z,8.50
2023-01-17T05:22:04.230Z,8.50
2023-01-17T05:24:52.298Z,8.50
2023-01-17T05:27:40.228Z,8.50
2023-01-17T05:30:33.363Z,8.60
2023-01-17T05:33:23.697Z,8.60
2023-01-17T05:36:11.319Z,8.60
2023-01-17T05:38:59.231Z,8.70
2023-01-17T05:41:47.277Z,8.80
2023-01-17T05:44:34.812Z,8.90
2023-01-17T05:47:22.288Z,9.00
2023-01-17T05:50:15.679Z,9.10
2023-01-17T05:53:10.148Z,9.20
2023-01-17T05:55:57.838Z,9.40
2023-01-17T05:58:45.609Z,9.30
2023-01-17T06:01:33.187Z,9.30
2023-01-17T06:04:20.799Z,9.20
2023-01-17T06:07:08.375Z,9.60
2023-01-17T06:09:56.071Z,9.60
2023-01-17T06:12:45.506Z,9.70
2023-01-17T06:15:36.392Z,9.70
2023-01-17T06:18:24.062Z,9.60
2023-01-17T06:21:11.624Z,9.70
2023-01-17T06:23:59.533Z,9.80
2023-01-17T06:26:47.334Z,9.80
2023-01-17T06:29:34.969Z,9.80
2023-01-17T06:32:22.574Z,9.80
2023-01-17T06:35:10.290Z,9.80
2023-01-17T06:38:00.009Z,9.80
2023-01-17T06:40:48.116Z,9.90
2023-01-17T06:43:36.291Z,9.90
2023-01-17T06:46:23.940Z,9.80
2023-01-17T06:49:11.430Z,9.90
2023-01-17T06:51:58.879Z,10.00
2023-01-17T06:54:48.798Z,10.00
2023-01-17T06:57:36.899Z,10.10
2023-01-17T07:00:24.797Z,10.00
2023-01-17T07:03:21.621Z,10.10
2023-01-17T07:06:09.918Z,10.30
2023-01-17T07:08:57.435Z,10.40
2023-01-17T07:11:45.672Z,10.30
2023-01-17T07:14:33.236Z,10.50
2023-01-17T07:17:20.828Z,10.50
2023-01-17T07:20:09.813Z,10.50
2023-01-17T07:22:57.400Z,10.60
2023-01-17T07:25:50.780Z,10.80
2023-01-17T07:28:38.499Z,10.90
2023-01-17T07:31:26.275Z,11.00
2023-01-17T07:34:14.130Z,11.10
2023-01-17T07:37:02.178Z,11.20
2023-01-17T07:39:50.158Z,11.40
2023-01-17T07:42:37.908Z,10.30
2023-01-17T07:45:25.523Z,10.10
2023-01-17T07:48:13.988Z,10.40
2023-01-17T07:51:01.839Z,10.20
2023-01-17T07:53:49.463Z,10.70
2023-01-17T07:56:37.737Z,10.60
2023-01-17T07:59:25.255Z,10.60
2023-01-17T08:02:23.695Z,10.90
2023-01-17T08:05:11.416Z,11.00
2023-01-17T08:07:59.253Z,11.20
2023-01-17T08:10:47.408Z,11.50
2023-01-17T08:13:35.411Z,11.60
2023-01-17T08:16:24.977Z,11.80
2023-01-17T08:19:12.657Z,12.00
2023-01-17T08:22:00.379Z,12.10
2023-01-17T08:24:48.758Z,12.30
2023-01-17T08:27:36.416Z,12.50
2023-01-17T08:30:24.556Z,12.70
2023-01-17T08:33:12.483Z,12.90
2023-01-17T08:36:00.177Z,13.00
2023-01-17T08:38:53.286Z,13.10
2023-01-17T08:41:41.185Z,13.30
2023-01-17T08:44:28.887Z,13.40
2023-01-17T08:47:16.350Z,13.30
2023-01-17T08:50:07.673Z,13.30
2023-01-17T08:53:01.052Z,13.30
2023-01-17T08:55:57.197Z,13.40
2023-01-17T08:58:45.495Z,13.40
2023-01-17T09:01:42.183Z,13.60
2023-01-17T09:04:30.451Z,13.70
2023-01-17T09:07:20.625Z,13.70
2023-01-17T09:10:08.849Z,13.60
2023-01-17T09:12:56.574Z,13.60
2023-01-17T09:15:44.308Z,13.60
2023-01-17T09:18:33.992Z,13.60
2023-01-17T09:21:22.379Z,13.80
2023-01-17T09:24:10.048Z,14.30
2023-01-17T09:26:57.797Z,14.70
2023-01-17T09:29:45.499Z,15.00
2023-01-17T09:32:33.466Z,15.20
2023-01-17T09:35:21.702Z,15.30
2023-01-17T09:38:09.434Z,15.60
2023-01-17T09:40:57.237Z,15.50
2023-01-17T09:44:01.612Z,15.60
2023-01-17T09:46:52.365Z,15.50
2023-01-17T09:49:46.300Z,15.70
2023-01-17T09:52:33.989Z,15.60
2023-01-17T09:55:21.715Z,15.30
2023-01-17T09:58:40.279Z,15.30
2023-01-17T10:02:15.870Z,14.90
2023-01-17T10:05:18.569Z,15.10
2023-01-17T10:08:22.988Z,15.30
2023-01-17T10:11:38.945Z,15.50
2023-01-17T10:14:53.823Z,15.80
2023-01-17T10:18:39.914Z,15.80
2023-01-17T10:22:11.674Z,16.10
2023-01-17T10:25:16.555Z,15.90
2023-01-17T10:28:22.802Z,15.70
2023-01-17T10:31:29.009Z,16.00
2023-01-17T10:34:30.279Z,16.10
2023-01-17T10:37:24.395Z,16.20
2023-01-17T10:40:55.071Z,16.00
2023-01-17T10:44:10.172Z,16.00
2023-01-17T10:47:06.090Z,15.90
2023-01-17T10:49:58.425Z,15.80
2023-01-17T10:53:23.869Z,15.70
2023-01-17T10:56:18.404Z,15.80
2023-01-17T10:59:28.820Z,16.10
2023-01-17T11:02:36.855Z,16.40
2023-01-17T11:05:33.413Z,16.40
2023-01-17T11:08:22.251Z,16.60
2023-01-17T11:11:10.117Z,16.70
2023-01-17T11:14:15.541Z,16.60
2023-01-17T11:17:07.344Z,16.10
2023-01-17T11:20:09.041Z,16.30
2023-01-17T11:23:29.616Z,16.10
2023-01-17T11:26:34.664Z,16.00
2023-01-17T11:29:36.916Z,15.60
2023-01-17T11:32:34.735Z,15.10
2023-01-17T11:35:41.381Z,15.00
2023-01-17T11:38:29.077Z,15.20
2023-01-17T11:41:20.416Z,15.10
2023-01-17T11:44:32.497Z,15.50
2023-01-17T11:47:20.196Z,15.60
2023-01-17T11:50:27.594Z,14.90
2023-01-17T11:53:30.285Z,14.90
2023-01-17T11:56:33.394Z,14.60
2023-01-17T11:59:37.657Z,14.90
2023-01-17T12:03:15.590Z,15.10
2023-01-17T12:06:57.985Z,15.10
2023-01-17T12:10:31.097Z,15.10
2023-01-17T12:14:00.961Z,15.50
2023-01-17T12:17:34.734Z,15.40
2023-01-17T12:21:11.115Z,15.00
2023-01-17T12:24:07.647Z,15.00
2023-01-17T12:27:14.838Z,15.30
2023-01-17T12:30:42.809Z,14.80
2023-01-17T12:33:57.078Z,15.40
2023-01-17T12:37:12.400Z,15.10
2023-01-17T12:40:30.573Z,15.00
2023-01-17T12:43:33.233Z,15.10
2023-01-17T12:46:49.579Z,15.10
2023-01-17T12:50:00.181Z,14.80
2023-01-17T12:53:18.838Z,14.80
2023-01-17T12:56:29.378Z,14.90
2023-01-17T12:59:43.114Z,14.70
2023-01-17T13:02:40.633Z,14.70
2023-01-17T13:05:41.939Z,14.80
2023-01-17T13:08:52.770Z,14.00
2023-01-17T13:12:06.736Z,14.30
2023-01-17T13:14:55.001Z,14.30
2023-01-17T13:17:50.593Z,14.30
2023-01-17T13:21:33.062Z,14.20
2023-01-17T13:25:05.054Z,14.20
2023-01-17T13:28:32.912Z,14.20
2023-01-17T13:32:15.298Z,14.70
2023-01-17T13:35:21.529Z,14.70
2023-01-17T13:38:30.233Z,14.80
2023-01-17T13:41:56.908Z,14.70
2023-01-17T13:44:46.293Z,14.70
2023-01-17T13:47:40.631Z,14.70
2023-01-17T13:50:49.466Z,14.80
2023-01-17T13:53:39.772Z,14.90
2023-01-17T13:56:33.023Z,14.80
2023-01-17T13:59:29.113Z,14.90
2023-01-17T14:02:38.914Z,15.00
2023-01-17T14:05:38.779Z,14.70
2023-01-17T14:08:27.498Z,14.70
2023-01-17T14:11:16.579Z,14.70
2023-01-17T14:14:42.995Z,15.00
2023-01-17T14:17:51.762Z,14.80
2023-01-17T14:20:49.179Z,14.90
2023-01-17T14:23:51.713Z,14.80
2023-01-17T14:26:57.058Z,14.70
2023-01-17T14:29:59.488Z,14.60
2023-01-17T14:32:59.471Z,14.80
2023-01-17T14:35:56.904Z,14.60
2023-01-17T14:38:44.987Z,14.10
2023-01-17T14:41:32.949Z,14.30
2023-01-17T14:44:22.129Z,14.10
2023-01-17T14:47:15.650Z,14.40
2023-01-17T14:50:25.543Z,14.50
2023-01-17T14:53:13.065Z,14.50
2023-01-17T14:56:15.251Z,14.50
2023-01-17T14:59:22.612Z,14.60
2023-01-17T15:02:18.854Z,14.70
2023-01-17T15:05:06.977Z,14.40
2023-01-17T15:07:57.790Z,14.30
2023-01-17T15:11:03.379Z,13.90
2023-01-17T15:13:57.405Z,14.30
2023-01-17T15:16:45.303Z,14.40
2023-01-17T15:19:46.302Z,14.40
2023-01-17T15:22:34.317Z,14.20
2023-01-17T15:25:22.196Z,14.40
2023-01-17T15:28:14.374Z,14.40
2023-01-17T15:31:15.659Z,14.50
2023-01-17T15:34:09.058Z,14.40
2023-01-17T15:37:04.073Z,14.40
2023-01-17T15:39:51.939Z,14.20
2023-01-17T15:42:43.931Z,14.40
2023-01-17T15:45:34.070Z,14.40
2023-01-17T15:48:43.478Z,14.40
2023-01-17T15:51:37.225Z,14.10
2023-01-17T15:54:44.645Z,14.30
2023-01-17T15:57:37.380Z,14.10
2023-01-17T16:00:38.103Z,14.00
2023-01-17T16:03:30.872Z,14.00
2023-01-17T16:06:45.667Z,13.90
2023-01-17T16:09:44.574Z,13.70
2023-01-17T16:12:32.776Z,13.60
2023-01-17T16:15:22.329Z,13.70
2023-01-17T16:18:21.522Z,13.50
2023-01-17T16:21:31.616Z,13.50
2023-01-17T16:24:19.962Z,13.40
2023-01-17T16:27:09.341Z,13.50
2023-01-17T16:29:56.920Z,13.40
2023-01-17T16:32:48.531Z,13.30
2023-01-17T16:35:37.036Z,13.30
2023-01-17T16:38:24.690Z,13.20
2023-01-17T16:41:12.563Z,13.40
2023-01-17T16:44:05.017Z,13.40
2023-01-17T16:46:52.891Z,13.30
2023-01-17T16:49:40.758Z,13.30
2023-01-17T16:52:28.601Z,13.10
2023-01-17T16:55:18.720Z,13.20
2023-01-17T16:58:06.514Z,13.30
2023-01-17T17:00:56.690Z,13.30
2023-01-17T17:03:45.367Z,13.20
2023-01-17T17:06:33.207Z,13.10
2023-01-17T17:09:22.434Z,12.90
2023-01-17T17:12:10.239Z,13.10
2023-01-17T17:14:57.905Z,13.30
2023-01-17T17:17:45.944Z,13.20
2023-01-17T17:20:33.953Z,13.30
2023-01-17T17:23:21.914Z,13.40
2023-01-17T17:26:09.613Z,13.30
2023-01-17T17:28:58.208Z,13.20
2023-01-17T17:31:46.461Z,13.10
2023-01-17T17:34:36.873Z,13.20
2023-01-17T17:37:24.582Z,13.00
2023-01-17T17:40:12.439Z,13.00
2023-01-17T17:43:00.282Z,12.60
2023-01-17T17:45:50.417Z,12.70
2023-01-17T17:48:38.468Z,12.80
2023-01-17T17:51:36.354Z,12.60
2023-01-17T17:54:24.885Z,12.90
2023-01-17T17:57:12.663Z,13.00
2023-01-17T18:00:00.384Z,12.70
2023-01-17T18:02:48.816Z,13.20
2023-01-17T18:05:36.818Z,13.20
2023-01-17T18:08:24.727Z,13.30
2023-01-17T18:11:20.419Z,13.40
2023-01-17T18:14:12.598Z,13.50
2023-01-17T18:17:00.527Z,13.50
2023-01-17T18:19:48.276Z,13.50
2023-01-17T18:22:36.027Z,13.50
2023-01-17T18:25:23.601Z,13.30
2023-01-17T18:28:11.379Z,13.50
2023-01-17T18:31:04.850Z,13.30
2023-01-17T18:33:54.446Z,13.30
2023-01-17T18:36:44.887Z,13.20
2023-01-17T18:39:32.451Z,13.10
2023-01-17T18:42:22.473Z,13.30
2023-01-17T18:45:11.291Z,13.30
2023-01-17T18:47:59.789Z,13.30
2023-01-17T18:51:00.257Z,13.20
2023-01-17T18:53:48.007Z,13.30
2023-01-17T18:56:36.515Z,13.50
2023-01-17T18:59:24.141Z,13.50
2023-01-17T19:02:11.903Z,13.60
2023-01-17T19:04:59.827Z,13.50
2023-01-17T19:07:47.631Z,13.70
2023-01-17T19:10:35.419Z,13.70
2023-01-17T19:13:23.273Z,13.60
2023-01-17T19:16:19.929Z,13.60
2023-01-17T19:19:12.398Z,13.70
2023-01-17T19:22:00.122Z,13.70
2023-01-17T19:24:47.699Z,13.50
2023-01-17T19:27:35.535Z,13.50
2023-01-17T19:30:24.742Z,13.70
2023-01-17T19:33:12.450Z,13.50
2023-01-17T19:36:06.086Z,13.60
2023-01-17T19:39:03.868Z,13.60
2023-01-17T19:41:52.083Z,13.40
2023-01-17T19:44:39.803Z,13.60
2023-01-17T19:47:27.488Z,13.40
2023-01-17T19:50:15.084Z,13.60
2023-01-17T19:53:02.899Z,13.80
2023-01-17T19:55:50.833Z,13.40
2023-01-17T19:58:39.365Z,13.50
2023-01-17T20:01:30.679Z,13.70
2023-01-17T20:04:18.929Z,13.40
2023-01-17T20:07:06.717Z,13.60
2023-01-17T20:09:54.640Z,13.70
2023-01-17T20:12:43.589Z,13.40
2023-01-17T20:15:31.713Z,13.70
2023-01-17T20:18:20.158Z,13.50
2023-01-17T20:21:18.908Z,13.60
2023-01-17T20:24:09.323Z,13.40
2023-01-17T20:26:58.119Z,13.30
2023-01-17T20:29:45.994Z,13.40
2023-01-17T20:32:33.622Z,13.60
2023-01-17T20:35:21.315Z,13.50
2023-01-17T20:38:10.565Z,13.70
2023-01-17T20:40:58.233Z,13.60
2023-01-17T20:43:52.643Z,13.60
2023-01-17T20:46:41.434Z,13.70
2023-01-17T20:49:29.217Z,13.50
2023-01-17T20:52:16.982Z,13.60
2023-01-17T20:55:05.287Z,13.40
2023-01-17T20:57:53.297Z,13.60
2023-01-17T21:00:41.220Z,13.50
2023-01-17T21:03:29.530Z,13.70
2023-01-17T21:06:19.159Z,13.70
2023-01-17T21:09:10.510Z,13.70
2023-01-17T21:12:01.520Z,13.70
2023-01-17T21:14:49.187Z,13.60
2023-01-17T21:17:41.325Z,13.70
2023-01-17T21:20:28.932Z,13.60
2023-01-17T21:23:20.280Z,13.60
2023-01-17T21:26:12.242Z,13.90
2023-01-17T21:29:03.184Z,13.90
2023-01-17T21:31:51.121Z,13.80
2023-01-17T21:34:39.119Z,13.60
2023-01-17T21:37:26.746Z,13.70
2023-01-17T21:40:15.118Z,13.80
2023-01-17T21:43:02.809Z,14.00
2023-01-17T21:45:51.319Z,13.80
2023-01-17T21:48:40.726Z,13.50
2023-01-17T21:51:48.183Z,13.60
2023-01-17T21:54:54.190Z,13.60
2023-01-17T21:58:01.055Z,13.50
2023-01-17T22:00:48.921Z,13.70
2023-01-17T22:03:37.265Z,13.60
2023-01-17T22:06:29.121Z,13.20
2023-01-17T22:09:16.898Z,13.00
2023-01-17T22:12:04.877Z,13.20
2023-01-17T22:14:52.812Z,12.70
2023-01-17T22:17:42.456Z,13.00
2023-01-17T22:20:30.121Z,13.10
2023-01-17T22:23:17.762Z,12.90
2023-01-17T22:26:10.773Z,12.90
2023-01-17T22:29:02.610Z,13.00
2023-01-17T22:31:50.478Z,13.10
2023-01-17T22:34:38.029Z,13.20
2023-01-17T22:37:26.078Z,13.10
2023-01-17T22:40:14.209Z,13.10
2023-01-17T22:43:02.102Z,13.10
2023-01-17T22:45:49.869Z,13.10
2023-01-17T22:48:40.187Z,13.20
2023-01-17T22:51:29.581Z,13.10
2023-01-17T22:54:17.359Z,13.00
2023-01-17T22:57:06.239Z,13.00
2023-01-17T22:59:53.790Z,12.90
2023-01-17T23:02:42.868Z,12.90
2023-01-17T23:05:30.655Z,12.90
2023-01-17T23:08:20.333Z,13.00
2023-01-17T23:11:43.490Z,13.00
2023-01-17T23:14:55.042Z,12.90
2023-01-17T23:18:02.178Z,12.80
2023-01-17T23:20:49.881Z,12.80
2023-01-17T23:23:37.674Z,12.70
2023-01-17T23:26:25.461Z,12.70
2023-01-17T23:29:13.274Z,12.60
2023-01-17T23:32:00.974Z,12.50
2023-01-17T23:34:48.942Z,12.50
2023-01-17T23:37:55.309Z,12.50
2023-01-17T23:41:04.532Z,12.40
2023-01-17T23:43:58.296Z,12.40
2023-01-17T23:46:45.932Z,12.30
2023-01-17T23:49:33.653Z,12.30
2023-01-17T23:52:21.548Z,12.20
2023-01-17T23:55:09.777Z,12.10
2023-01-17T23:57:57.539Z,12.00
